Time;durP1;ratioP1;P1;durP2;ratioP2;P2;SDS_P1;SDS_P2;PMS_P1;PMS_P2;Temp;Humidity;BMP_temperature;BMP_pressure;BME280_temperature;BME280_humidity;BME280_pressure;Samples;Min_cycle;Max_cycle;Signal;HPM_P1;HPM_P2
2023/05/23 00:01:31;;;;;;;6.53;4.82;;;;;;;;;;5053719;28;20037;-74
2023/05/23 00:03:57;;;;;;;6.65;4.55;;;;;;;;;;5035426;28;20106;-74
2023/05/23 00:06:23;;;;;;;6.25;4.05;;;;;;;;;;5040970;28;20037;-73
2023/05/23 00:08:49;;;;;;;6.57;4.28;;;;;;;;;;5034574;28;20079;-74
2023/05/23 00:11:15;;;;;;;5.32;3.95;;;;;;;;;;5052697;28;20051;-74
2023/05/23 00:13:41;;;;;;;7.80;4.50;;;;;;;;;;5054118;28;20486;-74
2023/05/23 00:16:09;;;;;;;9.63;4.07;;;;;;;;;;5052830;28;20036;-74
2023/05/23 00:18:35;;;;;;;6.65;4.07;;;;;;;;;;5053657;28;20021;-74
2023/05/23 00:21:02;;;;;;;5.90;3.70;;;;;;;;;;5053237;28;20106;-74
2023/05/23 00:23:28;;;;;;;7.75;3.63;;;;;;;;;;5068904;28;20490;-74
2023/05/23 00:25:54;;;;;;;6.25;3.80;;;;;;;;;;5052936;28;20053;-74
2023/05/23 00:28:21;;;;;;;6.47;3.67;;;;;;;;;;5053598;28;20546;-74
2023/05/23 00:30:50;;;;;;;7.28;4.43;;;;;;;;;;5053306;28;20029;-74
2023/05/23 00:33:16;;;;;;;9.93;4.20;;;;;;;;;;5049595;28;20029;-74
2023/05/23 00:35:43;;;;;;;8.35;4.03;;;;;;;;;;5038663;28;20065;-74
2023/05/23 00:38:10;;;;;;;8.10;4.80;;;;;;;;;;5031289;28;20022;-74
2023/05/23 00:40:36;;;;;;;6.90;4.38;;;;;;;;;;5043419;28;20068;-74
2023/05/23 00:43:01;;;;;;;6.88;4.63;;;;;;;;;;5052196;28;20102;-74
2023/05/23 00:45:27;;;;;;;8.95;5.15;;;;;;;;;;5053049;28;20029;-74
2023/05/23 00:47:53;;;;;;;7.78;5.28;;;;;;;;;;5052030;28;20050;-74
2023/05/23 00:50:19;;;;;;;8.73;5.03;;;;;;;;;;5052028;28;20067;-74
2023/05/23 00:52:47;;;;;;;11.02;5.05;;;;;;;;;;5052242;28;20033;-74
2023/05/23 00:55:14;;;;;;;11.75;5.13;;;;;;;;;;5044216;28;20044;-74
2023/05/23 00:57:43;;;;;;;9.77;5.53;;;;;;;;;;5031864;28;20033;-74
2023/05/23 01:00:10;;;;;;;9.38;5.05;;;;;;;;;;5022035;28;20055;-74
2023/05/23 01:02:43;;;;;;;7.07;4.88;;;;;;;;;;5030045;28;20079;-74
2023/05/23 01:05:13;;;;;;;8.13;4.65;;;;;;;;;;5039683;28;20037;-74
2023/05/23 01:07:40;;;;;;;7.95;5.20;;;;;;;;;;5067546;28;20033;-74
2023/05/23 01:10:08;;;;;;;8.68;5.05;;;;;;;;;;5051920;28;20551;-74
2023/05/23 01:12:59;;;;;;;7.07;4.43;;;;;;;;;;5052118;28;20063;-74
2023/05/23 01:15:43;;;;;;;7.95;5.10;;;;;;;;;;5033549;28;20040;-74
2023/05/23 01:18:16;;;;;;;7.68;5.05;;;;;;;;;;5050736;28;20036;-73
2023/05/23 01:20:44;;;;;;;7.88;4.50;;;;;;;;;;5051721;28;20033;-73
2023/05/23 01:23:42;;;;;;;6.78;4.35;;;;;;;;;;5052075;28;20029;-73
2023/05/23 01:26:27;;;;;;;7.47;5.00;;;;;;;;;;5051921;28;20033;-74
2023/05/23 01:29:10;;;;;;;11.63;5.30;;;;;;;;;;5050710;28;20040;-73
2023/05/23 01:31:42;;;;;;;6.70;4.88;;;;;;;;;;5047323;28;20530;-73
2023/05/23 01:34:09;;;;;;;12.13;5.10;;;;;;;;;;5051708;28;20438;-74
2023/05/23 01:36:41;;;;;;;7.47;4.57;;;;;;;;;;5050084;28;20082;-73
2023/05/23 01:39:07;;;;;;;6.97;4.43;;;;;;;;;;5051729;28;20560;-73
2023/05/23 01:41:33;;;;;;;7.97;4.68;;;;;;;;;;5051253;28;20386;-73
2023/05/23 01:43:59;;;;;;;7.10;5.13;;;;;;;;;;5050322;28;20031;-73
2023/05/23 01:46:27;;;;;;;8.20;4.80;;;;;;;;;;5050188;28;20053;-73
2023/05/23 01:48:55;;;;;;;7.40;4.78;;;;;;;;;;5050339;28;20029;-73
2023/05/23 01:51:22;;;;;;;8.18;5.55;;;;;;;;;;5030058;28;20026;-73
2023/05/23 01:53:51;;;;;;;7.50;4.95;;;;;;;;;;5030352;28;20045;-73
2023/05/23 01:56:18;;;;;;;10.00;5.20;;;;;;;;;;5042455;28;20549;-73
2023/05/23 01:58:44;;;;;;;7.10;5.15;;;;;;;;;;5050127;28;20490;-73
2023/05/23 02:01:10;;;;;;;6.63;5.22;;;;;;;;;;5049579;28;20033;-73
2023/05/23 02:03:36;;;;;;;6.68;5.20;;;;;;;;;;5049964;28;20063;-74
2023/05/23 02:06:01;;;;;;;8.90;5.55;;;;;;;;;;5049383;28;20390;-73
2023/05/23 02:08:27;;;;;;;10.48;5.63;;;;;;;;;;5049640;28;20123;-73
2023/05/23 02:10:53;;;;;;;9.75;5.25;;;;;;;;;;5041161;28;20047;-73
2023/05/23 02:13:19;;;;;;;6.82;4.90;;;;;;;;;;5031256;28;20167;-72
2023/05/23 02:15:44;;;;;;;9.02;5.93;;;;;;;;;;5031672;28;20029;-73
2023/05/23 02:18:10;;;;;;;7.22;5.05;;;;;;;;;;5043491;28;20055;-73
2023/05/23 02:20:39;;;;;;;8.55;5.10;;;;;;;;;;5042272;28;20074;-73
2023/05/23 02:23:05;;;;;;;9.15;5.70;;;;;;;;;;5050367;28;20086;-74
2023/05/23 02:25:31;;;;;;;7.45;5.65;;;;;;;;;;5045400;28;20449;-74
2023/05/23 02:27:57;;;;;;;7.13;4.78;;;;;;;;;;5030700;28;20043;-74
2023/05/23 02:30:22;;;;;;;7.20;5.18;;;;;;;;;;5033500;28;20021;-73
2023/05/23 02:32:48;;;;;;;8.93;4.80;;;;;;;;;;5050282;28;20041;-74
2023/05/23 02:35:14;;;;;;;7.05;5.60;;;;;;;;;;5051114;28;20020;-74
2023/05/23 02:37:40;;;;;;;8.98;6.25;;;;;;;;;;5050193;28;20040;-74
2023/05/23 02:40:06;;;;;;;12.15;5.50;;;;;;;;;;5051590;28;20029;-74
2023/05/23 02:42:34;;;;;;;8.43;5.72;;;;;;;;;;5033911;28;20368;-74
2023/05/23 02:45:00;;;;;;;9.70;5.85;;;;;;;;;;5049675;28;20047;-74
2023/05/23 02:47:27;;;;;;;9.15;5.72;;;;;;;;;;5045931;28;20406;-73
2023/05/23 02:49:53;;;;;;;7.10;5.13;;;;;;;;;;5039215;28;20502;-74
2023/05/23 02:52:19;;;;;;;6.65;5.25;;;;;;;;;;5038119;28;20030;-73
2023/05/23 02:54:45;;;;;;;9.90;5.93;;;;;;;;;;5030952;28;20029;-74
2023/05/23 02:57:11;;;;;;;8.07;5.82;;;;;;;;;;5031808;28;20044;-74
2023/05/23 02:59:39;;;;;;;6.80;5.07;;;;;;;;;;5034350;28;20032;-74
2023/05/23 03:02:05;;;;;;;9.60;6.10;;;;;;;;;;5034135;28;20041;-74
2023/05/23 03:04:31;;;;;;;8.80;5.00;;;;;;;;;;5050975;28;20403;-73
2023/05/23 03:06:58;;;;;;;10.00;6.13;;;;;;;;;;5039563;28;20034;-72
2023/05/23 03:09:24;;;;;;;7.85;5.35;;;;;;;;;;5047240;28;20126;-72
2023/05/23 03:11:51;;;;;;;11.98;5.13;;;;;;;;;;5048358;28;20111;-72
2023/05/23 03:14:17;;;;;;;8.27;5.35;;;;;;;;;;5033640;28;20029;-73
2023/05/23 03:16:43;;;;;;;7.45;4.97;;;;;;;;;;5033959;28;20088;-73
2023/05/23 03:19:08;;;;;;;8.70;5.43;;;;;;;;;;5035388;28;20026;-73
2023/05/23 03:21:35;;;;;;;12.23;5.55;;;;;;;;;;5034870;28;20041;-73
2023/05/23 03:24:00;;;;;;;7.57;4.85;;;;;;;;;;5033863;28;20454;-72
2023/05/23 03:26:28;;;;;;;8.75;5.95;;;;;;;;;;5037558;28;20037;-73
2023/05/23 03:28:55;;;;;;;10.00;6.57;;;;;;;;;;5043519;28;20033;-73
2023/05/23 03:31:21;;;;;;;7.53;5.90;;;;;;;;;;5049536;28;20102;-73
2023/05/23 03:33:47;;;;;;;7.82;6.13;;;;;;;;;;5047933;28;20558;-73
2023/05/23 03:36:13;;;;;;;10.48;6.70;;;;;;;;;;5045976;28;20112;-72
2023/05/23 03:38:38;;;;;;;9.82;6.20;;;;;;;;;;5033313;28;20479;-73
2023/05/23 03:41:05;;;;;;;8.18;5.25;;;;;;;;;;5044697;28;20051;-72
2023/05/23 03:43:31;;;;;;;9.45;4.75;;;;;;;;;;5044586;28;20367;-73
2023/05/23 03:45:58;;;;;;;12.35;5.63;;;;;;;;;;5048859;28;20036;-73
2023/05/23 03:48:23;;;;;;;8.52;4.95;;;;;;;;;;5032749;28;20055;-72
2023/05/23 03:50:50;;;;;;;14.27;6.00;;;;;;;;;;5016779;28;20348;-74
2023/05/23 03:53:17;;;;;;;9.30;5.57;;;;;;;;;;5032816;28;20045;-75
2023/05/23 03:55:43;;;;;;;9.32;5.38;;;;;;;;;;5032342;28;20033;-73
2023/05/23 03:58:10;;;;;;;7.15;5.50;;;;;;;;;;5033897;28;20418;-74
2023/05/23 04:00:37;;;;;;;9.98;5.50;;;;;;;;;;5032695;28;20056;-72
2023/05/23 04:03:07;;;;;;;10.85;5.28;;;;;;;;;;5032602;28;20029;-74
2023/05/23 04:05:33;;;;;;;13.00;5.60;;;;;;;;;;5032044;28;20128;-74
2023/05/23 04:08:00;;;;;;;11.15;5.07;;;;;;;;;;5031839;28;20033;-73
2023/05/23 04:10:27;;;;;;;9.02;5.10;;;;;;;;;;5033635;28;20091;-71
2023/05/23 04:12:55;;;;;;;15.82;6.55;;;;;;;;;;5032334;28;20029;-74
2023/05/23 04:15:21;;;;;;;14.05;6.25;;;;;;;;;;5042619;28;20060;-74
2023/05/23 04:17:53;;;;;;;23.90;6.53;;;;;;;;;;5047384;28;20036;-72
2023/05/23 04:20:20;;;;;;;21.80;6.40;;;;;;;;;;5056893;28;20131;-73
2023/05/23 04:22:45;;;;;;;17.95;7.10;;;;;;;;;;5032364;28;20539;-74
2023/05/23 04:25:12;;;;;;;16.50;5.90;;;;;;;;;;5040217;28;20043;-73
2023/05/23 04:27:46;;;;;;;21.90;7.00;;;;;;;;;;5044066;28;20025;-74
2023/05/23 04:30:15;;;;;;;7.22;5.10;;;;;;;;;;5043077;28;20045;-74
2023/05/23 04:32:43;;;;;;;14.05;5.85;;;;;;;;;;5043732;28;20083;-74
2023/05/23 04:35:09;;;;;;;12.55;5.15;;;;;;;;;;5042281;28;20509;-74
2023/05/23 04:37:38;;;;;;;10.60;5.60;;;;;;;;;;5049882;28;20036;-73
2023/05/23 04:40:06;;;;;;;7.60;5.25;;;;;;;;;;5022859;28;20059;-73
2023/05/23 04:42:43;;;;;;;11.25;5.10;;;;;;;;;;5061897;28;20148;-75
2023/05/23 04:45:32;;;;;;;20.58;7.07;;;;;;;;;;5039105;28;20045;-73
2023/05/23 04:48:02;;;;;;;42.03;8.20;;;;;;;;;;5050872;28;20052;-73
2023/05/23 04:50:41;;;;;;;17.70;5.95;;;;;;;;;;5045019;28;20048;-74
2023/05/23 04:53:07;;;;;;;15.45;5.97;;;;;;;;;;5043866;28;20123;-72
2023/05/23 04:55:34;;;;;;;12.23;5.43;;;;;;;;;;5046078;28;20037;-73
2023/05/23 04:58:02;;;;;;;11.30;5.70;;;;;;;;;;5053923;28;20098;-74
2023/05/23 05:00:29;;;;;;;14.05;5.70;;;;;;;;;;5038476;28;20057;-74
2023/05/23 05:02:55;;;;;;;14.30;6.20;;;;;;;;;;5029579;28;20090;-74
2023/05/23 05:05:25;;;;;;;11.55;5.95;;;;;;;;;;5038726;28;20083;-75
2023/05/23 05:07:51;;;;;;;11.45;6.40;;;;;;;;;;5038969;28;20107;-73
2023/05/23 05:10:16;;;;;;;11.68;5.95;;;;;;;;;;5040447;28;20119;-73
2023/05/23 05:12:45;;;;;;;17.23;6.10;;;;;;;;;;5037861;28;20091;-74
2023/05/23 05:15:12;;;;;;;26.80;7.80;;;;;;;;;;5040338;28;20021;-73
2023/05/23 05:17:39;;;;;;;13.95;6.35;;;;;;;;;;5050561;28;20032;-75
2023/05/23 05:20:09;;;;;;;14.55;6.50;;;;;;;;;;5051116;28;20022;-73
2023/05/23 05:22:41;;;;;;;29.88;7.38;;;;;;;;;;5038575;28;20060;-74
2023/05/23 05:25:10;;;;;;;;;;;;;;;;;;5038806;28;20483;-75
2023/05/23 05:27:36;;;;;;;11.48;5.18;;;;;;;;;;5050513;28;19909;-72
2023/05/23 05:30:09;;;;;;;9.73;4.68;;;;;;;;;;5035500;28;20069;-74
2023/05/23 05:32:56;;;;;;;13.60;5.72;;;;;;;;;;5047421;28;20037;-72
2023/05/23 05:35:23;;;;;;;11.77;5.00;;;;;;;;;;5040264;28;20095;-74
2023/05/23 05:37:48;;;;;;;9.88;5.40;;;;;;;;;;5042655;28;20021;-74
2023/05/23 05:40:14;;;;;;;23.67;7.03;;;;;;;;;;5043710;28;20047;-74
2023/05/23 05:42:43;;;;;;;14.93;5.53;;;;;;;;;;5042799;28;20504;-73
2023/05/23 05:45:10;;;;;;;15.98;5.55;;;;;;;;;;5034734;28;20044;-73
2023/05/23 05:47:39;;;;;;;11.27;5.20;;;;;;;;;;5017767;28;20115;-73
2023/05/23 05:50:07;;;;;;;12.18;5.38;;;;;;;;;;5034960;28;20029;-75
2023/05/23 05:52:37;;;;;;;10.73;5.28;;;;;;;;;;5029149;28;20107;-74
2023/05/23 05:55:06;;;;;;;13.82;5.78;;;;;;;;;;5025594;28;20479;-74
2023/05/23 05:57:32;;;;;;;14.20;5.63;;;;;;;;;;5033376;28;20060;-74
2023/05/23 05:59:59;;;;;;;11.98;5.15;;;;;;;;;;5041013;28;20037;-77
2023/05/23 06:02:25;;;;;;;22.23;6.32;;;;;;;;;;5038112;28;20021;-77
2023/05/23 06:04:51;;;;;;;13.27;5.95;;;;;;;;;;5038835;28;20036;-77
2023/05/23 06:07:17;;;;;;;18.15;5.85;;;;;;;;;;5048104;28;20028;-76
2023/05/23 06:09:45;;;;;;;15.10;6.38;;;;;;;;;;5039252;28;20065;-77
2023/05/23 06:12:11;;;;;;;13.50;5.72;;;;;;;;;;5055181;28;20037;-77
2023/05/23 06:14:37;;;;;;;19.90;6.75;;;;;;;;;;5032694;28;20170;-77
2023/05/23 06:17:03;;;;;;;15.40;6.35;;;;;;;;;;5041446;28;20131;-77
2023/05/23 06:19:29;;;;;;;19.30;6.07;;;;;;;;;;5047635;28;20072;-77
2023/05/23 06:21:57;;;;;;;17.58;6.55;;;;;;;;;;5049580;28;20028;-77
2023/05/23 06:24:23;;;;;;;14.40;5.97;;;;;;;;;;5040201;28;20095;-76
2023/05/23 06:26:48;;;;;;;17.73;6.28;;;;;;;;;;5013619;28;20597;-75
2023/05/23 06:29:14;;;;;;;13.73;5.95;;;;;;;;;;5046395;28;20122;-78
2023/05/23 06:31:41;;;;;;;18.55;6.78;;;;;;;;;;5031246;28;20017;-76
2023/05/23 06:34:07;;;;;;;28.75;7.22;;;;;;;;;;5037803;28;20076;-77
2023/05/23 06:36:32;;;;;;;23.42;6.97;;;;;;;;;;5040767;28;20505;-77
2023/05/23 06:38:58;;;;;;;19.80;6.63;;;;;;;;;;5025374;28;20032;-77
2023/05/23 06:41:26;;;;;;;17.92;6.85;;;;;;;;;;5032137;28;20131;-77
2023/05/23 06:43:53;;;;;;;14.20;6.57;;;;;;;;;;5029694;28;20037;-77
2023/05/23 06:46:24;;;;;;;13.32;6.00;;;;;;;;;;5033296;28;20029;-77
2023/05/23 06:48:50;;;;;;;17.88;7.63;;;;;;;;;;5055450;28;20058;-77
2023/05/23 06:51:17;;;;;;;16.20;8.07;;;;;;;;;;5041939;28;20021;-73
2023/05/23 06:53:43;;;;;;;13.38;7.32;;;;;;;;;;5042061;28;20031;-73
2023/05/23 06:56:09;;;;;;;14.35;7.03;;;;;;;;;;5041992;28;20033;-74
2023/05/23 06:58:48;;;;;;;12.38;6.65;;;;;;;;;;5038279;28;20033;-72
2023/05/23 07:01:14;;;;;;;16.63;6.88;;;;;;;;;;5040613;28;20311;-74
2023/05/23 07:03:49;;;;;;;21.98;7.25;;;;;;;;;;5037953;28;20075;-72
2023/05/23 07:06:16;;;;;;;15.75;6.68;;;;;;;;;;5053149;28;20041;-74
2023/05/23 07:08:42;;;;;;;17.40;7.15;;;;;;;;;;5040144;28;20031;-73
2023/05/23 07:11:09;;;;;;;17.10;7.03;;;;;;;;;;5039890;28;20423;-74
2023/05/23 07:13:41;;;;;;;11.52;6.03;;;;;;;;;;5024595;28;20119;-75
2023/05/23 07:16:12;;;;;;;10.77;6.53;;;;;;;;;;5038143;28;20050;-74
2023/05/23 07:18:49;;;;;;;13.50;7.35;;;;;;;;;;5040272;28;20510;-74
2023/05/23 07:21:14;;;;;;;15.90;6.22;;;;;;;;;;5047797;28;20052;-74
2023/05/23 07:23:40;;;;;;;11.18;6.18;;;;;;;;;;5023556;28;20029;-74
2023/05/23 07:26:08;;;;;;;16.10;6.63;;;;;;;;;;5040258;28;20033;-74
2023/05/23 07:28:45;;;;;;;14.55;6.03;;;;;;;;;;5034672;28;20048;-75
2023/05/23 07:31:13;;;;;;;12.23;6.45;;;;;;;;;;5029672;28;20044;-75
2023/05/23 07:33:40;;;;;;;11.18;5.63;;;;;;;;;;5031419;28;20127;-72
2023/05/23 07:36:08;;;;;;;19.35;6.22;;;;;;;;;;5047095;28;20033;-74
2023/05/23 07:38:33;;;;;;;13.48;5.63;;;;;;;;;;5030957;28;20412;-74
2023/05/23 07:41:00;;;;;;;13.52;5.90;;;;;;;;;;5039917;28;20029;-75
2023/05/23 07:43:26;;;;;;;12.45;5.53;;;;;;;;;;5040710;28;20021;-75
2023/05/23 07:45:52;;;;;;;12.85;6.35;;;;;;;;;;5039119;28;20033;-76
2023/05/23 07:48:18;;;;;;;13.40;6.13;;;;;;;;;;5042067;28;20028;-76
2023/05/23 07:50:43;;;;;;;12.40;5.70;;;;;;;;;;5060016;28;20028;-75
2023/05/23 07:53:11;;;;;;;16.83;7.45;;;;;;;;;;5038020;28;20100;-76
2023/05/23 07:55:38;;;;;;;9.18;5.25;;;;;;;;;;5042431;28;20034;-78
2023/05/23 07:58:04;;;;;;;9.85;4.00;;;;;;;;;;5043934;28;20421;-77
2023/05/23 08:00:31;;;;;;;7.82;4.30;;;;;;;;;;5059029;28;20045;-77
2023/05/23 08:03:04;;;;;;;8.27;3.92;;;;;;;;;;5040494;28;20047;-76
2023/05/23 08:05:36;;;;;;;11.33;3.77;;;;;;;;;;5032273;28;20124;-76
2023/05/23 08:08:02;;;;;;;8.93;4.32;;;;;;;;;;5025531;28;20366;-75
2023/05/23 08:10:29;;;;;;;7.82;4.28;;;;;;;;;;5041216;28;20025;-76
2023/05/23 08:13:05;;;;;;;7.05;3.40;;;;;;;;;;5051773;28;20043;-75
2023/05/23 08:15:35;;;;;;;5.25;3.50;;;;;;;;;;5041332;28;20056;-74
2023/05/23 08:18:08;;;;;;;4.65;3.30;;;;;;;;;;5032123;28;20040;-74
2023/05/23 08:20:34;;;;;;;5.22;3.47;;;;;;;;;;5047981;28;20379;-75
2023/05/23 08:23:00;;;;;;;5.72;3.30;;;;;;;;;;5045271;28;20112;-74
2023/05/23 08:25:29;;;;;;;7.05;4.25;;;;;;;;;;5044306;28;20025;-74
2023/05/23 08:27:57;;;;;;;7.40;3.55;;;;;;;;;;5051041;28;20021;-74
2023/05/23 08:30:50;;;;;;;5.95;2.80;;;;;;;;;;5048846;28;20036;-74
2023/05/23 08:33:18;;;;;;;12.15;3.50;;;;;;;;;;5050283;28;20033;-75
2023/05/23 08:35:47;;;;;;;7.40;4.05;;;;;;;;;;5032082;28;20056;-75
2023/05/23 08:38:16;;;;;;;5.38;3.15;;;;;;;;;;5031954;28;20030;-75
2023/05/23 08:41:00;;;;;;;12.20;3.88;;;;;;;;;;5036385;28;20037;-76
2023/05/23 08:43:28;;;;;;;5.72;3.10;;;;;;;;;;5042880;28;20028;-77
2023/05/23 08:45:54;;;;;;;5.65;3.15;;;;;;;;;;5040460;28;20029;-74
2023/05/23 08:48:20;;;;;;;7.53;3.50;;;;;;;;;;5024862;28;20138;-75
2023/05/23 08:50:49;;;;;;;13.40;3.13;;;;;;;;;;5039463;28;20128;-74
2023/05/23 08:53:22;;;;;;;5.60;2.88;;;;;;;;;;5035156;28;20049;-74
2023/05/23 08:55:57;;;;;;;6.97;3.10;;;;;;;;;;5030351;28;20026;-75
2023/05/23 08:58:30;;;;;;;5.72;3.10;;;;;;;;;;5031516;28;20021;-74
2023/05/23 09:00:58;;;;;;;8.02;3.35;;;;;;;;;;5042678;28;20064;-73
2023/05/23 09:03:28;;;;;;;7.03;3.13;;;;;;;;;;5042799;28;20024;-75
2023/05/23 09:06:09;;;;;;;7.32;3.75;;;;;;;;;;5055578;28;20499;-75
2023/05/23 09:08:38;;;;;;;3.92;2.67;;;;;;;;;;5032921;28;20106;-76
2023/05/23 09:11:05;;;;;;;5.20;3.15;;;;;;;;;;5050850;28;20486;-74
2023/05/23 09:13:36;;;;;;;5.75;3.05;;;;;;;;;;5024406;28;20136;-75
2023/05/23 09:16:08;;;;;;;6.80;3.47;;;;;;;;;;5042601;28;20045;-74
2023/05/23 09:18:41;;;;;;;11.20;5.18;;;;;;;;;;5040910;28;20040;-74
2023/05/23 09:21:10;;;;;;;9.15;3.30;;;;;;;;;;5052181;28;20567;-75
2023/05/23 09:23:41;;;;;;;5.47;2.90;;;;;;;;;;5039663;28;20037;-76
2023/05/23 09:26:12;;;;;;;7.65;3.50;;;;;;;;;;5030388;28;20395;-75
2023/05/23 09:28:39;;;;;;;5.68;3.20;;;;;;;;;;5047315;28;20475;-74
2023/05/23 09:31:07;;;;;;;6.03;3.17;;;;;;;;;;5040405;28;20475;-76
2023/05/23 09:33:51;;;;;;;5.70;2.67;;;;;;;;;;5047746;28;20090;-74
2023/05/23 09:36:18;;;;;;;5.85;2.70;;;;;;;;;;5035016;28;20557;-74
2023/05/23 09:38:51;;;;;;;9.35;4.05;;;;;;;;;;5041214;28;20041;-74
2023/05/23 09:41:19;;;;;;;6.20;3.25;;;;;;;;;;5050430;28;20036;-75
2023/05/23 09:43:52;;;;;;;6.80;3.30;;;;;;;;;;5033858;28;20430;-76
2023/05/23 09:46:20;;;;;;;4.80;2.88;;;;;;;;;;5034393;28;20454;-75
2023/05/23 09:48:50;;;;;;;6.47;3.42;;;;;;;;;;5042476;28;20033;-73
2023/05/23 09:51:21;;;;;;;7.32;3.03;;;;;;;;;;5042739;28;20044;-74
2023/05/23 09:53:47;;;;;;;5.90;2.85;;;;;;;;;;5032907;28;20028;-74
2023/05/23 09:56:15;;;;;;;6.13;2.90;;;;;;;;;;5050976;28;20078;-73
2023/05/23 09:58:45;;;;;;;6.63;3.20;;;;;;;;;;5042843;28;20077;-74
2023/05/23 10:01:12;;;;;;;5.82;3.53;;;;;;;;;;5050962;28;20494;-77
2023/05/23 10:03:49;;;;;;;7.72;3.20;;;;;;;;;;5046851;28;20029;-74
2023/05/23 10:06:24;;;;;;;5.90;3.10;;;;;;;;;;5030443;28;20033;-75
2023/05/23 10:09:04;;;;;;;7.10;3.58;;;;;;;;;;5039933;28;20030;-73
2023/05/23 10:11:33;;;;;;;6.65;3.25;;;;;;;;;;5039924;28;20326;-74
2023/05/23 10:14:06;;;;;;;6.60;3.30;;;;;;;;;;5044352;28;20123;-74
2023/05/23 10:17:02;;;;;;;11.60;3.55;;;;;;;;;;5034215;28;20058;-75
2023/05/23 10:19:37;;;;;;;7.40;3.00;;;;;;;;;;5034948;28;20037;-76
2023/05/23 10:22:07;;;;;;;8.63;3.40;;;;;;;;;;5037830;28;20039;-75
2023/05/23 10:24:35;;;;;;;7.25;3.38;;;;;;;;;;5047360;28;20036;-75
2023/05/23 10:27:02;;;;;;;8.18;3.30;;;;;;;;;;5039497;28;20029;-75
2023/05/23 10:29:28;;;;;;;4.63;3.03;;;;;;;;;;5029546;28;20032;-75
2023/05/23 10:31:55;;;;;;;12.40;4.30;;;;;;;;;;5050991;28;20028;-74
2023/05/23 10:35:02;;;;;;;6.97;3.38;;;;;;;;;;5041922;28;20041;-75
2023/05/23 10:37:46;;;;;;;5.82;3.60;;;;;;;;;;5039704;28;20025;-74
2023/05/23 10:40:37;;;;;;;8.52;3.35;;;;;;;;;;5040233;28;20131;-73
2023/05/23 10:43:12;;;;;;;9.27;3.38;;;;;;;;;;5040208;28;20052;-74
2023/05/23 10:45:42;;;;;;;6.35;3.35;;;;;;;;;;5035200;28;20105;-75
2023/05/23 10:48:30;;;;;;;6.53;3.10;;;;;;;;;;5042750;28;20033;-76
2023/05/23 10:51:05;;;;;;;6.95;3.42;;;;;;;;;;5042111;28;20025;-74
2023/05/23 10:53:35;;;;;;;7.45;3.30;;;;;;;;;;5042049;28;20363;-74
2023/05/23 10:56:03;;;;;;;9.60;3.40;;;;;;;;;;5039153;28;20391;-72
2023/05/23 10:58:30;;;;;;;4.18;2.88;;;;;;;;;;5038433;28;20506;-72
2023/05/23 11:01:01;;;;;;;9.68;3.45;;;;;;;;;;5050761;28;20083;-75
2023/05/23 11:03:35;;;;;;;6.47;3.28;;;;;;;;;;5043133;28;20041;-75
2023/05/23 11:06:03;;;;;;;5.25;3.17;;;;;;;;;;5037285;28;20176;-74
2023/05/23 11:08:37;;;;;;;7.90;2.95;;;;;;;;;;5039847;28;20052;-74
2023/05/23 11:11:03;;;;;;;6.90;3.05;;;;;;;;;;5042376;28;20036;-75
2023/05/23 11:13:56;;;;;;;6.45;3.10;;;;;;;;;;5042522;28;20151;-75
2023/05/23 11:16:41;;;;;;;5.50;3.13;;;;;;;;;;5034980;28;20057;-75
2023/05/23 11:19:19;;;;;;;6.47;2.95;;;;;;;;;;5039855;28;20403;-75
2023/05/23 11:21:49;;;;;;;8.95;3.70;;;;;;;;;;5051096;28;20052;-75
2023/05/23 11:24:16;;;;;;;5.75;3.25;;;;;;;;;;5047945;28;20082;-75
2023/05/23 11:26:59;;;;;;;6.88;2.90;;;;;;;;;;5038107;28;20072;-75
2023/05/23 11:29:30;;;;;;;6.60;3.40;;;;;;;;;;5046430;28;20067;-75
2023/05/23 11:31:56;;;;;;;5.35;3.40;;;;;;;;;;5043234;28;20033;-74
2023/05/23 11:34:24;;;;;;;4.47;2.70;;;;;;;;;;5041362;28;20049;-77
2023/05/23 11:36:55;;;;;;;5.85;3.03;;;;;;;;;;5051373;28;20060;-74
2023/05/23 11:39:21;;;;;;;6.80;3.47;;;;;;;;;;5046764;28;20478;-73
2023/05/23 11:42:00;;;;;;;9.15;2.85;;;;;;;;;;5043293;28;20078;-74
2023/05/23 11:44:26;;;;;;;5.03;2.92;;;;;;;;;;5032974;28;20056;-73
2023/05/23 11:47:02;;;;;;;5.85;2.95;;;;;;;;;;5045580;28;20013;-73
2023/05/23 11:49:30;;;;;;;8.30;3.50;;;;;;;;;;5046151;28;20110;-72
2023/05/23 11:52:01;;;;;;;6.47;3.20;;;;;;;;;;5037785;28;20044;-75
2023/05/23 11:54:27;;;;;;;7.72;3.65;;;;;;;;;;5045902;28;20029;-73
2023/05/23 11:56:54;;;;;;;6.35;4.28;;;;;;;;;;5050901;28;20114;-73
2023/05/23 11:59:25;;;;;;;6.25;3.70;;;;;;;;;;5042648;28;20119;-74
2023/05/23 12:01:51;;;;;;;8.40;3.92;;;;;;;;;;5044893;28;20029;-74
2023/05/23 12:04:17;;;;;;;11.25;4.20;;;;;;;;;;5047763;28;20025;-74
2023/05/23 12:06:47;;;;;;;8.30;3.40;;;;;;;;;;5047921;28;20051;-73
2023/05/23 12:09:14;;;;;;;8.98;3.67;;;;;;;;;;5045606;28;20120;-73
2023/05/23 12:11:40;;;;;;;6.93;3.70;;;;;;;;;;5052431;28;20028;-73
2023/05/23 12:14:07;;;;;;;6.70;3.90;;;;;;;;;;5042270;28;20028;-77
2023/05/23 12:16:33;;;;;;;5.43;3.33;;;;;;;;;;5053133;28;20017;-75
2023/05/23 12:19:01;;;;;;;9.05;3.50;;;;;;;;;;5041114;28;20030;-77
2023/05/23 12:21:47;;;;;;;11.57;3.80;;;;;;;;;;5048886;28;20021;-76
2023/05/23 12:24:13;;;;;;;5.15;3.38;;;;;;;;;;5052392;28;20037;-77
2023/05/23 12:26:53;;;;;;;11.43;3.00;;;;;;;;;;5054124;28;20030;-75
2023/05/23 12:29:39;;;;;;;5.88;3.03;;;;;;;;;;5045193;28;20025;-79
2023/05/23 12:32:06;;;;;;;9.57;3.90;;;;;;;;;;5047279;28;20017;-76
2023/05/23 12:34:33;;;;;;;4.82;2.55;;;;;;;;;;5037193;28;20029;-76
2023/05/23 12:37:05;;;;;;;10.10;3.92;;;;;;;;;;5040907;28;20592;-75
2023/05/23 12:39:32;;;;;;;7.97;3.00;;;;;;;;;;5041960;28;20029;-75
2023/05/23 12:42:08;;;;;;;4.65;2.78;;;;;;;;;;5044832;28;20390;-74
2023/05/23 12:44:35;;;;;;;5.57;3.20;;;;;;;;;;5048094;28;20024;-74
2023/05/23 12:47:04;;;;;;;5.57;3.08;;;;;;;;;;5049344;28;20029;-72
2023/05/23 12:49:30;;;;;;;6.18;3.58;;;;;;;;;;5036330;28;20451;-74
2023/05/23 12:51:56;;;;;;;5.95;4.03;;;;;;;;;;5046237;28;20028;-73
2023/05/23 12:54:22;;;;;;;7.40;3.10;;;;;;;;;;5048151;28;20053;-74
2023/05/23 12:56:48;;;;;;;5.93;2.88;;;;;;;;;;5044894;28;20032;-74
2023/05/23 12:59:13;;;;;;;9.80;3.25;;;;;;;;;;5053628;28;20029;-73
2023/05/23 13:01:39;;;;;;;5.38;2.80;;;;;;;;;;5053155;28;20371;-73
2023/05/23 13:04:05;;;;;;;5.03;3.13;;;;;;;;;;5050007;28;20389;-74
2023/05/23 13:06:32;;;;;;;3.92;2.72;;;;;;;;;;5060210;28;20087;-73
2023/05/23 13:08:58;;;;;;;5.22;3.13;;;;;;;;;;5045323;28;20104;-72
2023/05/23 13:11:24;;;;;;;6.55;3.08;;;;;;;;;;5047035;28;20037;-73
2023/05/23 13:13:51;;;;;;;7.97;3.47;;;;;;;;;;5050021;28;20013;-73
2023/05/23 13:16:17;;;;;;;6.70;3.30;;;;;;;;;;5044474;28;20036;-73
2023/05/23 13:18:43;;;;;;;8.75;3.20;;;;;;;;;;5044766;28;20033;-73
2023/05/23 13:21:09;;;;;;;8.25;3.45;;;;;;;;;;5048089;28;20033;-73
2023/05/23 13:23:37;;;;;;;8.80;3.60;;;;;;;;;;5046879;28;20098;-73
2023/05/23 13:26:03;;;;;;;10.88;4.10;;;;;;;;;;5044105;28;20037;-73
2023/05/23 13:28:29;;;;;;;7.10;3.08;;;;;;;;;;5048195;28;20021;-73
2023/05/23 13:30:55;;;;;;;8.82;3.60;;;;;;;;;;5064512;28;20292;-73
2023/05/23 13:33:23;;;;;;;9.20;3.50;;;;;;;;;;5048857;28;20020;-74
2023/05/23 13:35:49;;;;;;;8.90;3.45;;;;;;;;;;5049100;28;20029;-74
2023/05/23 13:38:19;;;;;;;8.35;3.38;;;;;;;;;;5052108;28;20096;-72
2023/05/23 13:40:45;;;;;;;6.25;3.50;;;;;;;;;;5048464;28;20116;-73
2023/05/23 13:43:10;;;;;;;7.68;3.40;;;;;;;;;;5045639;28;20104;-74
2023/05/23 13:45:36;;;;;;;5.75;3.50;;;;;;;;;;5046662;28;20382;-74
2023/05/23 13:48:02;;;;;;;4.53;2.97;;;;;;;;;;5044780;28;20022;-72
2023/05/23 13:50:28;;;;;;;6.93;3.17;;;;;;;;;;5046847;28;20143;-72
2023/05/23 13:52:53;;;;;;;5.93;3.35;;;;;;;;;;5044422;28;20025;-72
2023/05/23 13:55:20;;;;;;;5.07;2.67;;;;;;;;;;5049443;28;20035;-74
2023/05/23 13:57:45;;;;;;;5.95;3.33;;;;;;;;;;5059101;28;20028;-74
2023/05/23 14:00:12;;;;;;;5.45;2.90;;;;;;;;;;5047746;28;20047;-75
2023/05/23 14:02:37;;;;;;;7.53;3.47;;;;;;;;;;5050032;28;20025;-73
2023/05/23 14:05:04;;;;;;;8.30;3.20;;;;;;;;;;5050401;28;20136;-75
2023/05/23 14:07:30;;;;;;;4.35;2.80;;;;;;;;;;5034374;28;20032;-74
2023/05/23 14:09:56;;;;;;;6.60;3.47;;;;;;;;;;5043408;28;20068;-74
2023/05/23 14:12:22;;;;;;;7.43;3.45;;;;;;;;;;5051994;28;20487;-76
2023/05/23 14:14:47;;;;;;;15.93;3.90;;;;;;;;;;5064746;28;20090;-75
2023/05/23 14:17:16;;;;;;;6.47;3.30;;;;;;;;;;5052078;28;20498;-75
2023/05/23 14:19:42;;;;;;;6.85;3.55;;;;;;;;;;5051440;28;20041;-72
2023/05/23 14:22:07;;;;;;;5.80;2.95;;;;;;;;;;5051585;28;20075;-73
2023/05/23 14:24:33;;;;;;;7.55;3.03;;;;;;;;;;5043198;28;20128;-73
2023/05/23 14:26:59;;;;;;;3.88;2.80;;;;;;;;;;5049806;28;20557;-73
2023/05/23 14:29:25;;;;;;;6.65;3.03;;;;;;;;;;5051216;28;20060;-73
2023/05/23 14:31:51;;;;;;;5.18;2.65;;;;;;;;;;5066718;28;20029;-72
2023/05/23 14:34:16;;;;;;;7.35;3.30;;;;;;;;;;5051101;28;20058;-74
2023/05/23 14:36:42;;;;;;;6.63;3.22;;;;;;;;;;5052225;28;20025;-72
2023/05/23 14:39:10;;;;;;;8.60;3.05;;;;;;;;;;5049703;28;20449;-72
2023/05/23 14:41:35;;;;;;;7.20;3.15;;;;;;;;;;5051061;28;20055;-72
2023/05/23 14:44:02;;;;;;;6.47;3.35;;;;;;;;;;5049603;28;20443;-72
2023/05/23 14:46:28;;;;;;;5.82;3.03;;;;;;;;;;5049495;28;20550;-73
2023/05/23 14:48:54;;;;;;;5.68;2.65;;;;;;;;;;5032814;28;20120;-73